createdAt,value
2019-03-13T00:01:53.628Z,66.20
2019-03-13T00:04:55.919Z,66.30
2019-03-13T00:07:58.205Z,68.10
2019-03-13T00:11:00.438Z,66.50
2019-03-13T00:14:02.698Z,67.40
2019-03-13T00:17:04.960Z,67.50
2019-03-13T00:20:07.573Z,66.80
2019-03-13T00:23:09.869Z,64.30
2019-03-13T00:26:12.107Z,64.70
2019-03-13T00:29:14.386Z,63.20
2019-03-13T00:32:16.619Z,62.20
2019-03-13T00:35:18.860Z,63.90
2019-03-13T00:38:21.099Z,65.00
2019-03-13T00:41:23.471Z,65.00
2019-03-13T00:44:25.680Z,67.00
2019-03-13T00:47:27.955Z,65.90
2019-03-13T00:50:30.767Z,67.80
2019-03-13T00:53:33.047Z,70.10
2019-03-13T00:56:35.281Z,70.30
2019-03-13T00:59:37.511Z,71.60
2019-03-13T01:02:41.892Z,69.30
2019-03-13T01:05:48.683Z,72.10
2019-03-13T01:08:50.968Z,70.60
2019-03-13T01:11:53.272Z,69.70
2019-03-13T01:14:55.487Z,70.20
2019-03-13T01:17:57.735Z,69.40
2019-03-13T01:21:00.004Z,66.10
2019-03-13T01:24:02.252Z,63.40
2019-03-13T01:27:04.520Z,63.40
2019-03-13T01:30:06.923Z,62.60
2019-03-13T01:33:12.045Z,64.30
2019-03-13T01:36:14.315Z,66.50
2019-03-13T01:39:16.562Z,68.10
2019-03-13T01:42:18.829Z,68.80
2019-03-13T01:45:21.063Z,69.30
2019-03-13T01:48:23.321Z,69.80
2019-03-13T01:51:25.596Z,69.20
2019-03-13T01:54:27.820Z,68.30
2019-03-13T01:57:30.060Z,68.90
2019-03-13T02:00:32.311Z,68.60
2019-03-13T02:03:34.559Z,68.40
2019-03-13T02:06:36.775Z,68.10
2019-03-13T02:09:38.992Z,68.10
2019-03-13T02:12:41.268Z,67.90
2019-03-13T02:15:43.518Z,67.50
2019-03-13T02:18:45.811Z,67.60
2019-03-13T02:21:48.032Z,67.50
2019-03-13T02:24:50.282Z,68.00
2019-03-13T02:27:52.533Z,69.30
2019-03-13T02:30:54.799Z,68.80
2019-03-13T02:33:57.047Z,69.60
2019-03-13T02:36:59.264Z,69.40
2019-03-13T02:40:01.503Z,70.00
2019-03-13T02:43:03.736Z,70.90
2019-03-13T02:46:05.997Z,71.10
2019-03-13T02:49:08.200Z,73.00
2019-03-13T02:52:10.518Z,74.00
2019-03-13T02:55:12.777Z,77.70
2019-03-13T02:58:15.009Z,79.40
2019-03-13T03:01:23.381Z,82.80
2019-03-13T03:04:25.650Z,84.40
2019-03-13T03:07:27.887Z,89.50
2019-03-13T03:10:30.138Z,89.40
2019-03-13T03:13:32.426Z,92.50
2019-03-13T03:16:34.691Z,94.50
2019-03-13T03:19:36.933Z,97.50
2019-03-13T03:22:39.210Z,95.50
2019-03-13T03:25:41.465Z,96.60
2019-03-13T03:28:43.998Z,92.70
2019-03-13T03:31:46.221Z,92.50
2019-03-13T03:34:48.453Z,93.50
2019-03-13T03:37:50.680Z,92.70
2019-03-13T03:40:52.966Z,94.40
2019-03-13T03:43:55.200Z,92.90
2019-03-13T03:46:57.475Z,91.50
2019-03-13T03:53:27.495Z,92.20
2019-03-13T03:56:29.777Z,94.50
2019-03-13T03:59:32.061Z,96.00
2019-03-13T04:02:34.339Z,92.70
2019-03-13T04:05:36.623Z,92.60
2019-03-13T04:08:38.950Z,92.80
2019-03-13T04:11:41.243Z,92.20
2019-03-13T04:14:43.492Z,92.30
2019-03-13T04:17:45.784Z,91.00
2019-03-13T04:20:48.033Z,90.80
2019-03-13T04:23:50.267Z,92.30
2019-03-13T04:26:52.499Z,91.20
2019-03-13T04:29:54.741Z,93.00
2019-03-13T04:32:57.005Z,92.40
2019-03-13T04:35:59.251Z,91.80
2019-03-13T04:39:01.475Z,92.20
2019-03-13T04:42:03.716Z,92.50
2019-03-13T04:45:06.100Z,92.40
2019-03-13T04:48:08.344Z,91.10
2019-03-13T04:51:10.559Z,91.70
2019-03-13T04:54:12.836Z,91.90
2019-03-13T04:57:15.068Z,90.90
2019-03-13T05:00:17.321Z,93.00
2019-03-13T05:03:19.585Z,92.40
2019-03-13T05:06:22.411Z,92.30
2019-03-13T05:09:34.256Z,93.40
2019-03-13T05:12:36.480Z,93.30
2019-03-13T05:15:38.746Z,94.20
2019-03-13T05:18:41.059Z,93.80
2019-03-13T05:21:43.312Z,94.00
2019-03-13T05:24:45.502Z,93.10
2019-03-13T05:27:47.745Z,92.90
2019-03-13T05:30:52.982Z,93.20
2019-03-13T05:33:52.318Z,93.80
2019-03-13T05:36:54.529Z,94.10
2019-03-13T05:39:56.791Z,93.60
2019-03-13T05:42:59.083Z,93.80
2019-03-13T05:46:01.350Z,93.50
2019-03-13T05:49:03.622Z,94.90
2019-03-13T05:52:05.906Z,95.40
2019-03-13T05:55:08.171Z,97.20
2019-03-13T05:58:10.418Z,96.80
2019-03-13T06:01:12.642Z,98.10
2019-03-13T06:04:14.837Z,99.10
2019-03-13T06:07:17.042Z,99.20
2019-03-13T06:10:19.327Z,99.90
2019-03-13T06:13:21.539Z,99.90
2019-03-13T06:16:23.727Z,99.90
2019-03-13T06:19:25.965Z,99.90
2019-03-13T06:22:28.175Z,99.90
2019-03-13T06:25:30.398Z,99.90
2019-03-13T06:28:32.592Z,99.90
2019-03-13T06:31:34.867Z,99.90
2019-03-13T06:34:37.059Z,99.90
2019-03-13T06:37:39.287Z,99.90
2019-03-13T06:40:41.548Z,99.90
2019-03-13T06:43:43.779Z,99.90
2019-03-13T06:46:46.037Z,99.90
2019-03-13T06:49:48.238Z,99.90
2019-03-13T06:52:50.499Z,99.90
2019-03-13T06:55:52.726Z,99.90
2019-03-13T06:59:00.695Z,99.90
2019-03-13T07:02:10.542Z,99.90
2019-03-13T07:05:23.364Z,99.90
2019-03-13T07:08:33.987Z,99.90
2019-03-13T07:11:43.684Z,99.90
2019-03-13T07:14:51.339Z,99.90
2019-03-13T07:18:00.992Z,99.90
2019-03-13T07:23:09.808Z,99.90
2019-03-13T07:26:17.633Z,99.90
2019-03-13T07:29:24.457Z,99.90
2019-03-13T07:32:32.267Z,99.90
2019-03-13T07:35:45.876Z,99.90
2019-03-13T07:38:54.609Z,99.90
2019-03-13T07:42:02.596Z,99.90
2019-03-13T07:45:10.701Z,99.90
2019-03-13T07:49:26.587Z,99.90
2019-03-13T07:54:39.527Z,99.90
2019-03-13T07:57:56.265Z,99.90
2019-03-13T08:01:03.147Z,99.90
2019-03-13T08:04:20.002Z,99.90
2019-03-13T08:07:35.781Z,99.90
2019-03-13T08:10:43.735Z,99.90
2019-03-13T08:13:52.625Z,99.90
2019-03-13T08:16:59.491Z,99.90
2019-03-13T08:22:09.291Z,99.40
2019-03-13T08:26:22.151Z,98.60
2019-03-13T08:29:32.000Z,95.90
2019-03-13T08:32:40.039Z,95.20
2019-03-13T08:35:49.717Z,93.30
2019-03-13T08:39:59.604Z,92.00
2019-03-13T08:44:13.479Z,91.20
2019-03-13T08:47:23.183Z,91.70
2019-03-13T08:52:32.751Z,91.40
2019-03-13T08:55:39.556Z,90.80
2019-03-13T08:58:46.349Z,87.90
2019-03-13T09:01:53.232Z,86.70
2019-03-13T09:06:03.161Z,87.20
2019-03-13T09:11:27.516Z,83.00
2019-03-13T09:14:34.219Z,83.80
2019-03-13T09:17:47.848Z,80.00
2019-03-13T09:21:03.467Z,80.30
2019-03-13T09:24:12.243Z,79.20
2019-03-13T09:27:20.000Z,78.30
2019-03-13T09:30:27.584Z,75.60
2019-03-13T09:33:35.323Z,75.00
2019-03-13T09:36:43.147Z,76.00
2019-03-13T09:39:50.815Z,73.80
2019-03-13T09:43:04.671Z,72.90
2019-03-13T09:46:21.338Z,73.10
2019-03-13T09:51:33.168Z,71.50
2019-03-13T09:54:40.886Z,72.10
2019-03-13T09:57:48.852Z,70.80
2019-03-13T10:00:58.481Z,68.80
2019-03-13T10:04:08.262Z,68.30
2019-03-13T10:08:17.972Z,68.90
2019-03-13T10:11:24.800Z,69.80
2019-03-13T10:14:46.572Z,67.90
2019-03-13T10:17:56.220Z,68.20
2019-03-13T10:21:06.964Z,68.40
2019-03-13T10:24:18.727Z,67.90
2019-03-13T10:27:29.357Z,68.60
2019-03-13T10:30:37.203Z,67.90
2019-03-13T10:33:50.987Z,69.20
2019-03-13T10:36:58.974Z,69.40
2019-03-13T10:40:05.835Z,69.90
2019-03-13T10:43:15.638Z,70.00
2019-03-13T10:46:27.584Z,70.20
2019-03-13T10:49:36.721Z,71.80
2019-03-13T10:52:43.599Z,70.10
2019-03-13T10:55:51.390Z,71.00
2019-03-13T10:59:02.053Z,71.00
2019-03-13T11:03:14.709Z,70.80
2019-03-13T11:06:24.470Z,70.30
2019-03-13T11:09:31.509Z,69.30
2019-03-13T11:12:48.520Z,69.20
2019-03-13T11:15:54.340Z,68.80
2019-03-13T11:19:05.958Z,68.60
2019-03-13T11:22:15.675Z,68.30
2019-03-13T11:25:26.375Z,67.90
2019-03-13T11:30:38.146Z,67.00
2019-03-13T11:34:02.976Z,66.50
2019-03-13T11:37:10.866Z,87.00
2019-03-13T11:40:50.627Z,96.00
2019-03-13T11:44:02.268Z,99.90
2019-03-13T11:47:42.780Z,99.90
2019-03-13T11:50:47.828Z,99.90
2019-03-13T11:53:56.627Z,99.90
2019-03-13T11:57:07.283Z,99.90
2019-03-13T12:01:17.532Z,99.90
2019-03-13T12:04:24.896Z,98.50
2019-03-13T12:07:46.637Z,97.70
2019-03-13T12:10:53.552Z,96.20
2019-03-13T12:16:06.434Z,93.10
2019-03-13T12:19:21.288Z,90.60
2019-03-13T12:22:28.112Z,87.30
2019-03-13T12:25:43.987Z,88.20
2019-03-13T12:28:51.882Z,85.30
2019-03-13T12:31:58.744Z,88.80
2019-03-13T12:35:12.410Z,83.50
2019-03-13T12:38:22.125Z,85.90
2019-03-13T12:41:29.952Z,82.20
2019-03-13T12:44:36.775Z,81.30
2019-03-13T12:47:46.569Z,77.90
2019-03-13T12:50:56.250Z,77.70
2019-03-13T12:54:12.298Z,79.20
2019-03-13T12:57:20.078Z,75.70
2019-03-13T13:00:26.885Z,76.90
2019-03-13T13:03:35.527Z,76.80
2019-03-13T13:07:00.393Z,78.10
2019-03-13T13:10:10.262Z,79.00
2019-03-13T13:13:17.110Z,79.30
2019-03-13T13:16:27.731Z,79.00
2019-03-13T13:19:29.980Z,76.70
2019-03-13T13:22:32.240Z,75.60
2019-03-13T13:25:34.456Z,75.10
2019-03-13T13:28:36.675Z,75.60
2019-03-13T13:31:38.893Z,76.40
2019-03-13T13:34:41.223Z,75.60
2019-03-13T13:37:43.423Z,75.30
2019-03-13T13:40:45.655Z,75.90
2019-03-13T13:43:47.867Z,75.70
2019-03-13T13:46:50.088Z,73.30
2019-03-13T13:49:59.594Z,71.80
2019-03-13T13:52:54.613Z,70.00
2019-03-13T13:55:56.930Z,72.40
2019-03-13T13:58:59.172Z,71.40
2019-03-13T14:02:01.363Z,72.00
2019-03-13T14:05:03.789Z,71.70
2019-03-13T14:08:06.064Z,73.00
2019-03-13T14:11:08.304Z,74.30
2019-03-13T14:14:10.556Z,75.50
2019-03-13T14:17:12.930Z,76.50
2019-03-13T14:20:15.330Z,76.80
2019-03-13T14:23:17.544Z,77.30
2019-03-13T14:26:19.783Z,77.00
2019-03-13T14:29:22.023Z,75.90
2019-03-13T14:32:24.303Z,75.80
2019-03-13T14:35:26.559Z,75.20
2019-03-13T14:38:28.993Z,75.80
2019-03-13T14:41:31.259Z,76.10
2019-03-13T14:44:33.501Z,76.10
2019-03-13T14:47:35.811Z,78.10
2019-03-13T14:50:38.112Z,80.00
2019-03-13T14:53:40.311Z,82.20
2019-03-13T14:56:42.541Z,82.60
2019-03-13T14:59:44.769Z,84.80
2019-03-13T15:02:47.040Z,88.00
2019-03-13T15:05:49.299Z,90.10
2019-03-13T15:08:51.795Z,90.70
2019-03-13T15:11:54.015Z,90.60
2019-03-13T15:14:56.187Z,91.00
2019-03-13T15:17:58.396Z,90.10
2019-03-13T15:21:00.623Z,90.80
2019-03-13T15:24:02.894Z,91.00
2019-03-13T15:27:05.092Z,90.40
2019-03-13T15:30:11.255Z,89.80
2019-03-13T15:33:13.491Z,90.10
2019-03-13T15:36:15.779Z,90.10
2019-03-13T15:39:17.989Z,90.10
2019-03-13T15:42:20.220Z,90.00
2019-03-13T15:45:22.476Z,89.50
2019-03-13T15:48:24.719Z,87.80
2019-03-13T15:51:26.935Z,87.80
2019-03-13T15:54:29.235Z,84.70
2019-03-13T15:57:31.467Z,80.90
2019-03-13T16:00:33.702Z,80.80
2019-03-13T16:03:35.942Z,80.60
2019-03-13T16:06:38.136Z,79.90
2019-03-13T16:09:40.391Z,80.20
2019-03-13T16:12:42.636Z,80.70
2019-03-13T16:15:46.216Z,81.20
2019-03-13T16:18:47.375Z,80.80
2019-03-13T16:21:49.617Z,80.60
2019-03-13T16:24:51.860Z,81.30
2019-03-13T16:27:54.110Z,80.20
2019-03-13T16:30:56.352Z,80.10
2019-03-13T16:33:58.631Z,79.50
2019-03-13T16:37:00.874Z,78.50
2019-03-13T16:40:03.211Z,77.90
2019-03-13T16:43:05.464Z,77.60
2019-03-13T16:46:07.693Z,77.30
2019-03-13T16:49:10.100Z,79.00
2019-03-13T16:52:12.557Z,78.60
2019-03-13T16:55:16.571Z,90.10
2019-03-13T16:58:18.917Z,90.20
2019-03-13T17:01:21.303Z,88.90
2019-03-13T17:04:23.823Z,90.30
2019-03-13T17:07:26.246Z,91.20
2019-03-13T17:10:28.522Z,90.30
2019-03-13T17:13:30.815Z,92.20
2019-03-13T17:16:33.032Z,92.00
2019-03-13T17:19:35.312Z,92.30
2019-03-13T17:22:37.840Z,92.30
2019-03-13T17:25:40.098Z,92.10
2019-03-13T17:28:42.298Z,92.70
2019-03-13T17:31:44.514Z,92.00
2019-03-13T17:34:46.935Z,92.40
2019-03-13T17:37:49.212Z,92.50
2019-03-13T17:40:51.473Z,91.90
2019-03-13T17:43:53.722Z,92.50
2019-03-13T17:46:55.936Z,91.40
2019-03-13T17:49:58.142Z,91.40
2019-03-13T17:53:00.357Z,91.80
2019-03-13T17:56:02.623Z,92.00
2019-03-13T17:59:04.965Z,91.70
2019-03-13T18:02:07.284Z,92.40
2019-03-13T18:05:09.633Z,92.10
2019-03-13T18:08:11.933Z,92.20
2019-03-13T18:11:14.191Z,92.50
2019-03-13T18:14:16.501Z,93.50
2019-03-13T18:17:18.683Z,93.20
2019-03-13T18:20:20.990Z,93.20
2019-03-13T18:23:23.228Z,93.20
2019-03-13T18:26:25.569Z,92.90
2019-03-13T18:29:28.101Z,93.60
2019-03-13T18:32:41.231Z,93.60
2019-03-13T18:35:32.694Z,94.00
2019-03-13T18:38:34.952Z,94.20
2019-03-13T18:41:37.187Z,94.00
2019-03-13T18:44:39.396Z,94.50
2019-03-13T18:47:41.744Z,94.20
2019-03-13T18:50:44.188Z,94.00
2019-03-13T18:53:46.430Z,94.40
2019-03-13T18:56:48.660Z,94.10
2019-03-13T18:59:50.884Z,93.80
2019-03-13T19:02:53.226Z,93.90
2019-03-13T19:05:55.456Z,94.70
2019-03-13T19:08:57.705Z,94.20
2019-03-13T19:11:59.899Z,94.30
2019-03-13T19:15:02.160Z,94.30
2019-03-13T19:18:04.387Z,94.70
2019-03-13T19:21:06.588Z,95.30
2019-03-13T19:24:08.791Z,95.10
2019-03-13T19:27:11.231Z,95.00
2019-03-13T19:30:16.099Z,95.10
2019-03-13T19:33:18.440Z,95.10
2019-03-13T19:36:20.661Z,94.70
2019-03-13T19:39:22.917Z,95.10
2019-03-13T19:42:25.114Z,95.00
2019-03-13T19:45:30.005Z,94.80
2019-03-13T19:48:32.221Z,95.40
2019-03-13T19:51:34.652Z,95.10
2019-03-13T19:54:36.935Z,94.90
2019-03-13T19:57:39.159Z,94.60
2019-03-13T20:00:41.373Z,94.20
2019-03-13T20:03:54.738Z,94.70
2019-03-13T20:06:45.903Z,94.40
2019-03-13T20:09:48.111Z,94.00
2019-03-13T20:12:50.343Z,93.00
2019-03-13T20:15:52.600Z,93.20
2019-03-13T20:18:54.826Z,92.70
2019-03-13T20:21:57.083Z,92.80
2019-03-13T20:24:59.273Z,93.40
2019-03-13T20:28:01.496Z,92.80
2019-03-13T20:31:03.805Z,92.30
2019-03-13T20:34:06.015Z,92.80
2019-03-13T20:37:08.236Z,91.90
2019-03-13T20:40:12.819Z,92.30
2019-03-13T20:43:15.032Z,91.00
2019-03-13T20:46:17.313Z,91.30
2019-03-13T20:49:19.510Z,90.60
2019-03-13T20:52:21.754Z,90.60
2019-03-13T20:55:24.266Z,90.10
2019-03-13T20:58:26.511Z,89.30
2019-03-13T21:01:28.687Z,90.10
2019-03-13T21:04:30.975Z,91.20
2019-03-13T21:07:33.199Z,91.60
2019-03-13T21:10:35.432Z,94.60
2019-03-13T21:13:37.734Z,97.80
2019-03-13T21:16:39.964Z,99.90
2019-03-13T21:19:42.155Z,99.90
2019-03-13T21:22:44.415Z,99.90
2019-03-13T21:25:46.673Z,99.80
2019-03-13T21:28:48.895Z,99.90
2019-03-13T21:31:51.764Z,99.90
2019-03-13T21:34:54.028Z,99.90
2019-03-13T21:37:56.244Z,99.90
2019-03-13T21:40:58.619Z,99.90
2019-03-13T21:44:00.843Z,99.90
2019-03-13T21:47:03.103Z,99.90
2019-03-13T21:50:06.503Z,99.90
2019-03-13T21:53:08.819Z,99.90
2019-03-13T21:56:11.141Z,99.90
2019-03-13T21:59:13.465Z,99.90
2019-03-13T22:02:15.804Z,99.90
2019-03-13T22:05:25.617Z,99.90
2019-03-13T22:08:20.356Z,99.90
2019-03-13T22:11:22.653Z,99.90
2019-03-13T22:14:24.883Z,99.90
2019-03-13T22:17:27.108Z,99.90
2019-03-13T22:20:29.344Z,99.90
2019-03-13T22:23:31.575Z,99.90
2019-03-13T22:26:33.804Z,99.90
2019-03-13T22:29:36.332Z,99.90
2019-03-13T22:32:38.553Z,99.90
2019-03-13T22:35:40.747Z,99.90
2019-03-13T22:38:43.027Z,99.90
2019-03-13T22:41:45.293Z,99.90
2019-03-13T22:44:47.547Z,99.90
2019-03-13T22:47:49.787Z,99.90
2019-03-13T22:50:52.033Z,99.90
2019-03-13T22:53:54.299Z,99.90
2019-03-13T22:56:56.543Z,99.90
2019-03-13T22:59:58.766Z,99.90
2019-03-13T23:03:00.965Z,99.90
2019-03-13T23:06:03.321Z,99.90
2019-03-13T23:09:06.039Z,99.90
2019-03-13T23:12:08.281Z,99.90
2019-03-13T23:15:10.541Z,99.90
2019-03-13T23:18:12.804Z,99.90
2019-03-13T23:21:15.010Z,99.90
2019-03-13T23:24:17.276Z,99.90
2019-03-13T23:27:19.484Z,99.90
2019-03-13T23:30:21.720Z,99.90
2019-03-13T23:33:23.987Z,99.90
2019-03-13T23:36:26.193Z,99.90
2019-03-13T23:39:28.403Z,99.90
2019-03-13T23:42:30.628Z,99.90
2019-03-13T23:45:32.835Z,99.90
2019-03-13T23:48:35.043Z,99.90
2019-03-13T23:51:37.288Z,99.90
2019-03-13T23:54:39.480Z,99.90
2019-03-13T23:57:41.720Z,99.90
